createdAt,value
2022-08-05T00:00:16.004Z,85.20
2022-08-05T00:02:44.127Z,84.90
2022-08-05T00:06:01.699Z,84.70
2022-08-05T00:08:32.710Z,84.20
2022-08-05T00:11:00.589Z,84.20
2022-08-05T00:13:38.174Z,83.70
2022-08-05T00:16:10.846Z,83.50
2022-08-05T00:18:40.463Z,83.10
2022-08-05T00:21:09.496Z,82.60
2022-08-05T00:23:46.408Z,82.30
2022-08-05T00:26:15.044Z,82.30
2022-08-05T00:28:43.799Z,82.00
2022-08-05T00:31:13.114Z,82.00
2022-08-05T00:34:54.215Z,82.10
2022-08-05T00:37:11.169Z,82.20
2022-08-05T00:39:14.480Z,82.00
2022-08-05T00:41:46.887Z,82.20
2022-08-05T00:44:23.361Z,82.50
2022-08-05T00:47:01.861Z,82.90
2022-08-05T00:49:32.515Z,83.50
2022-08-05T00:52:00.366Z,84.20
2022-08-05T00:54:29.998Z,85.00
2022-08-05T00:56:57.238Z,85.60
2022-08-05T01:01:52.098Z,85.60
2022-08-05T01:04:20.102Z,86.60
2022-08-05T01:06:54.959Z,86.80
2022-08-05T01:09:22.233Z,86.60
2022-08-05T01:11:51.771Z,86.90
2022-08-05T01:14:27.855Z,87.00
2022-08-05T01:17:10.910Z,87.70
2022-08-05T01:20:00.935Z,87.70
2022-08-05T01:22:34.579Z,88.10
2022-08-05T01:25:13.824Z,88.40
2022-08-05T01:27:59.265Z,88.30
2022-08-05T01:30:34.727Z,88.40
2022-08-05T01:33:08.352Z,88.40
2022-08-05T01:35:51.111Z,88.30
2022-08-05T01:38:27.483Z,88.10
2022-08-05T01:41:01.364Z,88.10
2022-08-05T01:43:29.956Z,88.00
2022-08-05T01:45:57.863Z,87.90
2022-08-05T01:48:26.253Z,88.00
2022-08-05T01:50:55.348Z,87.90
2022-08-05T01:53:55.214Z,87.70
2022-08-05T01:56:11.903Z,87.70
2022-08-05T01:58:44.927Z,87.70
2022-08-05T02:01:24.672Z,87.40
2022-08-05T02:03:53.362Z,87.60
2022-08-05T02:06:37.176Z,87.30
2022-08-05T02:09:05.731Z,87.20
2022-08-05T02:11:52.645Z,87.20
2022-08-05T02:14:32.056Z,87.20
2022-08-05T02:17:05.546Z,87.20
2022-08-05T02:19:35.865Z,87.00
2022-08-05T02:22:08.509Z,87.10
2022-08-05T02:24:37.717Z,87.10
2022-08-05T02:27:09.940Z,87.20
2022-08-05T02:29:59.782Z,87.40
2022-08-05T02:32:29.404Z,87.90
2022-08-05T02:35:01.987Z,87.90
2022-08-05T02:37:37.252Z,88.20
2022-08-05T02:40:05.347Z,88.00
2022-08-05T02:42:37.293Z,87.90
2022-08-05T02:45:05.222Z,88.20
2022-08-05T02:47:58.482Z,88.10
2022-08-05T02:50:22.176Z,88.30
2022-08-05T02:52:51.075Z,89.20
2022-08-05T02:55:54.942Z,88.40
2022-08-05T02:58:14.784Z,88.20
2022-08-05T03:00:46.006Z,88.10
2022-08-05T03:03:23.460Z,87.90
2022-08-05T03:06:56.940Z,88.10
2022-08-05T03:08:42.531Z,88.50
2022-08-05T03:11:55.263Z,88.90
2022-08-05T03:14:08.150Z,89.20
2022-08-05T03:16:35.702Z,89.40
2022-08-05T03:19:12.598Z,90.20
2022-08-05T03:21:48.728Z,89.70
2022-08-05T03:24:29.667Z,90.00
2022-08-05T03:26:58.191Z,90.00
2022-08-05T03:29:44.543Z,90.00
2022-08-05T03:32:14.408Z,90.00
2022-08-05T03:34:42.170Z,90.20
2022-08-05T03:37:18.387Z,90.30
2022-08-05T03:40:01.467Z,90.30
2022-08-05T03:42:29.420Z,90.50
2022-08-05T03:47:30.550Z,90.50
2022-08-05T03:50:02.677Z,91.00
2022-08-05T03:52:38.008Z,91.10
2022-08-05T03:56:01.608Z,91.20
2022-08-05T03:58:11.115Z,91.30
2022-08-05T04:00:41.912Z,91.30
2022-08-05T04:05:54.298Z,91.20
2022-08-05T04:08:34.905Z,91.50
2022-08-05T04:11:04.830Z,91.60
2022-08-05T04:13:50.213Z,91.80
2022-08-05T04:16:24.131Z,92.00
2022-08-05T04:18:54.185Z,92.00
2022-08-05T04:22:08.358Z,92.00
2022-08-05T04:24:18.736Z,92.00
2022-08-05T04:26:49.464Z,92.00
2022-08-05T04:29:17.177Z,91.90
2022-08-05T04:31:44.170Z,91.90
2022-08-05T04:34:29.578Z,91.80
2022-08-05T04:36:59.216Z,91.80
2022-08-05T04:39:27.995Z,91.70
2022-08-05T04:41:55.545Z,91.60
2022-08-05T04:44:29.404Z,91.60
2022-08-05T04:49:38.608Z,91.40
2022-08-05T04:52:12.695Z,91.80
2022-08-05T04:54:39.786Z,91.90
2022-08-05T04:57:06.823Z,91.70
2022-08-05T04:59:39.131Z,92.10
2022-08-05T05:02:36.914Z,92.20
2022-08-05T05:05:01.663Z,92.20
2022-08-05T05:07:32.762Z,92.20
2022-08-05T05:10:05.499Z,92.40
2022-08-05T05:12:33.557Z,92.50
2022-08-05T05:15:03.866Z,92.80
2022-08-05T05:17:56.300Z,92.80
2022-08-05T05:20:28.722Z,93.00
2022-08-05T05:22:56.899Z,93.20
2022-08-05T05:25:32.693Z,93.20
2022-08-05T05:28:07.847Z,93.10
2022-08-05T05:30:36.751Z,93.10
2022-08-05T05:33:16.039Z,93.20
2022-08-05T05:35:48.269Z,93.40
2022-08-05T05:38:22.834Z,93.60
2022-08-05T05:40:55.919Z,93.30
2022-08-05T05:43:56.790Z,93.40
2022-08-05T05:48:48.028Z,92.90
2022-08-05T05:51:27.712Z,93.20
2022-08-05T05:53:59.504Z,93.50
2022-08-05T05:56:33.396Z,93.30
2022-08-05T05:59:06.183Z,93.40
2022-08-05T06:01:37.463Z,93.30
2022-08-05T06:04:07.032Z,93.20
2022-08-05T07:57:00.725Z,81.00
2022-08-05T07:59:08.505Z,80.50
2022-08-05T08:01:35.713Z,79.60
2022-08-05T08:04:37.366Z,78.60
2022-08-05T08:07:07.150Z,77.10
2022-08-05T08:09:34.972Z,75.60
2022-08-05T08:12:09.786Z,74.60
2022-08-05T08:14:41.951Z,73.70
2022-08-05T08:17:16.113Z,73.90
2022-08-05T08:20:43.382Z,72.40
2022-08-05T08:22:32.199Z,72.10
2022-08-05T08:25:03.458Z,71.30
2022-08-05T08:27:40.314Z,70.80
2022-08-05T08:30:30.027Z,70.60
2022-08-05T08:33:04.401Z,69.30
2022-08-05T08:35:41.584Z,69.00
2022-08-05T08:38:35.350Z,67.50
2022-08-05T08:41:05.815Z,67.40
2022-08-05T08:45:20.786Z,66.40
2022-08-05T08:46:23.134Z,66.60
2022-08-05T08:49:04.149Z,67.40
2022-08-05T08:52:03.623Z,67.40
2022-08-05T08:54:27.378Z,68.60
2022-08-05T08:56:56.592Z,69.30
2022-08-05T08:59:27.731Z,69.00
2022-08-05T09:02:01.238Z,68.30
2022-08-05T09:04:30.464Z,67.50
2022-08-05T09:06:58.303Z,66.20
2022-08-05T09:09:34.624Z,66.80
2022-08-05T09:12:15.284Z,65.80
2022-08-05T09:14:58.725Z,64.70
2022-08-05T09:17:42.334Z,64.40
2022-08-05T09:20:10.893Z,65.00
2022-08-05T09:23:05.278Z,62.90
2022-08-05T09:26:01.629Z,61.60
2022-08-05T09:28:32.125Z,61.60
2022-08-05T09:31:43.623Z,61.20
2022-08-05T09:34:07.217Z,60.80
2022-08-05T09:36:54.132Z,61.10
2022-08-05T09:39:41.570Z,61.50
2022-08-05T09:42:22.956Z,62.40
2022-08-05T09:44:52.866Z,61.90
2022-08-05T09:47:48.030Z,61.40
2022-08-05T09:50:37.737Z,61.20
2022-08-05T09:53:09.143Z,59.90
2022-08-05T09:55:56.898Z,59.30
2022-08-05T09:58:29.164Z,57.80
2022-08-05T10:00:57.534Z,57.00
2022-08-05T10:03:26.201Z,55.40
2022-08-05T10:06:14.751Z,54.40
2022-08-05T10:08:50.188Z,55.30
2022-08-05T10:11:21.283Z,54.40
2022-08-05T10:13:54.655Z,53.70
2022-08-05T10:16:37.959Z,53.30
2022-08-05T10:19:11.784Z,53.30
2022-08-05T10:21:40.101Z,52.80
2022-08-05T10:24:15.042Z,52.70
2022-08-05T10:26:51.996Z,53.10
2022-08-05T10:29:23.696Z,52.40
2022-08-05T10:32:52.111Z,51.40
2022-08-05T10:35:00.538Z,51.40
2022-08-05T10:37:40.031Z,50.80
2022-08-05T10:40:19.547Z,52.50
2022-08-05T10:42:48.755Z,53.80
2022-08-05T10:45:40.431Z,53.70
2022-08-05T10:48:31.809Z,52.70
2022-08-05T10:51:05.818Z,53.70
2022-08-05T10:53:54.505Z,53.80
2022-08-05T10:56:25.981Z,53.20
2022-08-05T10:58:53.342Z,52.70
2022-08-05T11:01:54.982Z,52.80
2022-08-05T11:04:22.407Z,53.10
2022-08-05T11:07:04.857Z,52.40
2022-08-05T11:09:46.721Z,52.30
2022-08-05T11:12:32.642Z,52.50
2022-08-05T11:15:19.363Z,52.70
2022-08-05T11:18:07.475Z,52.20
2022-08-05T11:20:43.754Z,52.70
2022-08-05T11:23:33.487Z,52.80
2022-08-05T11:26:28.953Z,52.80
2022-08-05T11:29:11.531Z,52.70
2022-08-05T11:31:57.972Z,51.90
2022-08-05T11:34:39.656Z,52.00
2022-08-05T11:38:26.510Z,52.20
2022-08-05T11:39:55.211Z,52.80
2022-08-05T11:42:28.278Z,53.20
2022-08-05T11:45:00.953Z,52.90
2022-08-05T11:47:48.443Z,53.10
2022-08-05T11:50:16.366Z,52.70
2022-08-05T11:52:44.106Z,52.60
2022-08-05T11:55:15.971Z,52.50
2022-08-05T11:58:09.151Z,52.20
2022-08-05T12:00:38.011Z,53.00
2022-08-05T12:03:23.927Z,53.40
2022-08-05T12:06:06.251Z,53.20
2022-08-05T12:08:48.032Z,52.40
2022-08-05T12:11:21.033Z,51.90
2022-08-05T12:14:04.047Z,52.00
2022-08-05T12:16:38.400Z,51.90
2022-08-05T12:19:08.330Z,52.10
2022-08-05T12:21:39.157Z,51.60
2022-08-05T12:24:07.870Z,52.30
2022-08-05T12:26:36.290Z,52.40
2022-08-05T12:29:16.426Z,52.10
2022-08-05T12:31:53.774Z,52.30
2022-08-05T12:34:28.552Z,51.80
2022-08-05T12:36:56.975Z,52.00
2022-08-05T12:39:27.894Z,52.60
2022-08-05T12:41:59.797Z,53.60
2022-08-05T12:44:33.914Z,54.60
2022-08-05T12:47:02.170Z,55.20
2022-08-05T12:50:03.228Z,55.80
2022-08-05T12:52:33.921Z,56.60
2022-08-05T12:55:22.268Z,56.90
2022-08-05T12:58:49.310Z,57.30
2022-08-05T13:01:59.784Z,57.00
2022-08-05T13:03:32.399Z,57.30
2022-08-05T13:06:01.105Z,57.30
2022-08-05T13:08:30.245Z,58.00
2022-08-05T13:11:04.246Z,58.40
2022-08-05T13:14:04.785Z,58.80
2022-08-05T13:16:25.331Z,58.50
2022-08-05T13:18:58.808Z,58.80
2022-08-05T13:21:28.606Z,58.10
2022-08-05T13:24:06.161Z,58.40
2022-08-05T13:26:36.183Z,59.00
2022-08-05T13:29:05.141Z,59.70
2022-08-05T13:31:33.981Z,59.90
2022-08-05T13:34:23.128Z,59.90
2022-08-05T13:36:53.597Z,59.90
2022-08-05T13:40:13.176Z,60.10
2022-08-05T13:42:14.560Z,60.40
2022-08-05T13:44:46.076Z,60.30
2022-08-05T13:47:35.754Z,60.30
2022-08-05T13:50:06.590Z,60.60
2022-08-05T13:52:36.909Z,60.80
2022-08-05T13:55:07.824Z,59.80
2022-08-05T13:57:51.598Z,60.10
2022-08-05T14:00:27.001Z,59.80
2022-08-05T14:02:56.326Z,59.80
2022-08-05T14:05:29.305Z,60.60
2022-08-05T14:08:21.396Z,60.00
2022-08-05T14:10:59.630Z,60.20
2022-08-05T14:13:30.466Z,59.20
2022-08-05T14:16:08.237Z,59.40
2022-08-05T14:18:38.147Z,59.50
2022-08-05T14:22:07.751Z,59.90
2022-08-05T14:23:52.419Z,60.40
2022-08-05T14:26:35.769Z,60.60
2022-08-05T14:29:15.870Z,60.60
2022-08-05T14:32:03.540Z,60.70
2022-08-05T14:34:34.950Z,61.00
2022-08-05T14:37:04.024Z,61.10
2022-08-05T14:39:32.129Z,61.40
2022-08-05T14:42:21.423Z,61.70
2022-08-05T14:44:49.161Z,62.40
2022-08-05T14:47:16.169Z,61.80
2022-08-05T14:49:59.246Z,61.50
2022-08-05T14:52:50.512Z,61.80
2022-08-05T14:55:15.950Z,62.10
2022-08-05T14:57:54.431Z,62.20
2022-08-05T15:00:27.771Z,62.20
2022-08-05T15:02:55.603Z,62.30
2022-08-05T15:05:29.576Z,62.80
2022-08-05T15:08:05.461Z,63.40
2022-08-05T15:10:41.552Z,63.70
2022-08-05T15:13:10.238Z,63.70
2022-08-05T15:15:55.933Z,63.80
2022-08-05T15:18:23.742Z,64.30
2022-08-05T15:20:51.200Z,64.70
2022-08-05T15:23:18.484Z,64.60
2022-08-05T15:25:52.619Z,64.80
2022-08-05T15:28:27.784Z,65.30
2022-08-05T15:30:55.451Z,65.70
2022-08-05T15:34:05.980Z,66.00
2022-08-05T15:36:17.344Z,66.30
2022-08-05T15:40:41.071Z,66.50
2022-08-05T15:41:57.617Z,66.80
2022-08-05T15:44:27.449Z,67.00
2022-08-05T15:46:55.808Z,67.00
2022-08-05T15:49:40.845Z,67.50
2022-08-05T15:52:16.958Z,67.50
2022-08-05T15:54:56.780Z,67.50
2022-08-05T15:57:24.056Z,67.70
2022-08-05T15:59:56.462Z,67.90
2022-08-05T16:02:25.517Z,67.90
2022-08-05T16:04:56.053Z,68.00
2022-08-05T16:07:23.198Z,68.30
2022-08-05T16:09:50.849Z,68.80
2022-08-05T16:12:21.074Z,69.30
2022-08-05T16:14:48.442Z,69.70
2022-08-05T16:17:16.228Z,70.00
2022-08-05T16:20:05.431Z,70.60
2022-08-05T16:22:33.914Z,70.50
2022-08-05T16:25:09.550Z,70.80
2022-08-05T16:28:00.413Z,70.90
2022-08-05T16:30:26.259Z,71.20
2022-08-05T16:32:54.375Z,71.60
2022-08-05T16:35:28.018Z,71.70
2022-08-05T16:38:15.524Z,72.00
2022-08-05T16:40:42.895Z,72.00
2022-08-05T16:43:19.247Z,73.20
2022-08-05T16:46:04.070Z,72.70
2022-08-05T16:48:35.283Z,72.90
2022-08-05T16:51:10.966Z,73.20
2022-08-05T16:54:04.019Z,73.30
2022-08-05T16:56:27.339Z,73.50
2022-08-05T16:58:54.380Z,73.80
2022-08-05T17:01:21.558Z,74.10
2022-08-05T17:03:51.996Z,74.50
2022-08-05T17:06:19.608Z,74.70
2022-08-05T17:08:53.036Z,74.90
2022-08-05T17:11:23.326Z,75.00
2022-08-05T17:14:00.153Z,75.30
2022-08-05T17:16:32.703Z,75.30
2022-08-05T17:19:00.512Z,75.50
2022-08-05T17:21:36.212Z,75.90
2022-08-05T17:24:28.316Z,76.20
2022-08-05T17:26:57.533Z,76.60
2022-08-05T17:29:33.223Z,76.90
2022-08-05T17:32:08.454Z,77.10
2022-08-05T17:34:38.254Z,77.30
2022-08-05T17:37:12.930Z,78.00
2022-08-05T17:39:56.069Z,78.30
2022-08-05T17:42:29.920Z,78.90
2022-08-05T17:44:59.980Z,79.60
2022-08-05T17:47:27.365Z,80.00
2022-08-05T17:50:03.870Z,80.60
2022-08-05T17:52:52.725Z,81.00
2022-08-05T17:55:22.398Z,81.80
2022-08-05T17:57:50.348Z,82.60
2022-08-05T18:00:17.588Z,83.00
2022-08-05T18:02:47.301Z,84.30
2022-08-05T18:05:16.926Z,84.00
2022-08-05T18:07:44.747Z,84.50
2022-08-05T18:10:20.620Z,85.10
2022-08-05T18:12:49.030Z,85.70
2022-08-05T18:15:16.004Z,86.20
2022-08-05T18:17:58.994Z,86.80
2022-08-05T18:20:31.493Z,87.20
2022-08-05T18:23:00.386Z,88.10
2022-08-05T18:25:32.773Z,88.90
2022-08-05T18:28:01.711Z,89.30
2022-08-05T18:30:33.277Z,89.80
2022-08-05T18:33:01.027Z,90.20
2022-08-05T18:36:00.527Z,90.50
2022-08-05T18:38:19.425Z,90.80
2022-08-05T18:41:57.138Z,91.50
2022-08-05T18:43:42.679Z,91.50
2022-08-05T18:46:15.482Z,91.80
2022-08-05T18:48:46.711Z,92.00
2022-08-05T18:52:05.983Z,92.30
2022-08-05T18:54:20.444Z,92.50
2022-08-05T18:56:51.208Z,92.70
2022-08-05T18:59:43.323Z,92.90
2022-08-05T19:02:11.291Z,93.10
2022-08-05T19:05:01.270Z,93.30
2022-08-05T19:07:45.861Z,93.60
2022-08-05T19:10:14.483Z,93.70
2022-08-05T19:12:41.738Z,93.90
2022-08-05T19:15:10.666Z,94.10
2022-08-05T19:18:09.557Z,94.20
2022-08-05T19:20:41.632Z,94.50
2022-08-05T19:23:22.388Z,94.40
2022-08-05T19:26:01.088Z,94.80
2022-08-05T19:28:30.709Z,95.00
2022-08-05T19:30:57.956Z,95.10
2022-08-05T19:33:35.090Z,95.30
2022-08-05T19:36:06.242Z,95.50
2022-08-05T19:38:40.061Z,95.50
2022-08-05T19:41:09.124Z,95.70
2022-08-05T19:44:06.549Z,95.90
2022-08-05T19:46:30.315Z,96.00
2022-08-05T19:49:03.583Z,96.20
2022-08-05T19:51:59.854Z,96.30
2022-08-05T19:54:25.563Z,96.40
2022-08-05T19:56:58.995Z,96.50
2022-08-05T20:00:00.901Z,96.80
2022-08-05T20:02:17.390Z,97.00
2022-08-05T20:04:45.791Z,97.10
2022-08-05T20:07:13.843Z,97.20
2022-08-05T20:09:53.600Z,97.10
2022-08-05T20:12:23.469Z,97.30
2022-08-05T20:14:52.310Z,97.20
2022-08-05T20:17:23.540Z,97.30
2022-08-05T20:19:56.600Z,97.20
2022-08-05T20:22:24.926Z,97.40
2022-08-05T20:24:54.025Z,97.50
2022-08-05T20:27:26.861Z,97.50
2022-08-05T20:29:58.330Z,97.70
2022-08-05T20:32:26.625Z,97.80
2022-08-05T20:34:54.170Z,97.90
2022-08-05T20:38:04.893Z,98.10
2022-08-05T20:40:09.692Z,98.20
2022-08-05T20:42:36.724Z,98.30
2022-08-05T20:45:05.320Z,98.60
2022-08-05T20:47:33.389Z,98.70
2022-08-05T20:50:02.026Z,98.80
2022-08-05T20:52:30.003Z,99.00
2022-08-05T20:55:15.966Z,99.00
2022-08-05T20:57:45.176Z,99.10
2022-08-05T21:00:35.020Z,99.40
2022-08-05T21:03:06.073Z,99.50
2022-08-05T21:05:48.149Z,99.70
2022-08-05T21:08:28.208Z,99.90
2022-08-05T21:11:10.058Z,99.90
2022-08-05T21:13:56.120Z,99.90
2022-08-05T21:16:30.184Z,99.90
2022-08-05T21:19:00.130Z,99.90
2022-08-05T21:21:39.750Z,99.90
2022-08-05T21:24:13.324Z,99.90
2022-08-05T21:26:44.108Z,99.90
2022-08-05T21:29:16.699Z,99.90
2022-08-05T21:31:44.111Z,99.90
2022-08-05T21:34:11.503Z,99.90
2022-08-05T21:36:39.491Z,99.90
2022-08-05T21:39:10.216Z,99.90
2022-08-05T21:41:42.114Z,99.90
2022-08-05T21:44:26.862Z,99.90
2022-08-05T21:46:54.287Z,99.90
2022-08-05T21:49:48.576Z,99.90
2022-08-05T21:52:22.218Z,99.90
2022-08-05T21:54:55.941Z,99.90
2022-08-05T21:57:31.998Z,99.90
2022-08-05T22:00:05.950Z,99.90
2022-08-05T22:02:39.941Z,99.90
2022-08-05T22:05:09.328Z,99.90
2022-08-05T22:07:39.740Z,99.90
2022-08-05T22:10:26.826Z,99.90
2022-08-05T22:12:57.170Z,99.90
2022-08-05T22:16:04.631Z,99.90
2022-08-05T22:18:12.894Z,99.90
2022-08-05T22:20:41.695Z,99.90
2022-08-05T22:24:01.401Z,99.90
2022-08-05T22:26:34.908Z,99.90
2022-08-05T22:29:02.852Z,99.90
2022-08-05T22:31:30.974Z,99.90
2022-08-05T22:34:20.171Z,99.90
2022-08-05T22:36:56.102Z,99.90
2022-08-05T22:39:30.982Z,99.90
2022-08-05T22:42:09.564Z,99.90
2022-08-05T22:44:39.277Z,99.90
2022-08-05T22:47:07.218Z,99.90
2022-08-05T22:50:19.446Z,99.90
2022-08-05T22:52:30.686Z,99.90
2022-08-05T22:55:02.028Z,99.90
2022-08-05T22:57:36.584Z,99.90
2022-08-05T23:00:05.635Z,99.90
2022-08-05T23:02:46.654Z,99.90
2022-08-05T23:05:15.041Z,99.90
2022-08-05T23:07:45.514Z,99.90
2022-08-05T23:10:20.090Z,99.90
2022-08-05T23:12:51.778Z,99.90
2022-08-05T23:15:22.511Z,99.90
2022-08-05T23:18:01.492Z,99.90
2022-08-05T23:20:32.169Z,99.90
2022-08-05T23:22:59.451Z,99.90
2022-08-05T23:25:53.204Z,99.90
2022-08-05T23:28:15.811Z,99.90
2022-08-05T23:30:53.107Z,99.90
2022-08-05T23:33:25.548Z,99.90
2022-08-05T23:36:06.361Z,99.90
2022-08-05T23:38:37.504Z,99.90
2022-08-05T23:41:04.480Z,99.90
2022-08-05T23:43:37.443Z,99.90
2022-08-05T23:46:20.716Z,99.90
2022-08-05T23:49:00.512Z,99.90
2022-08-05T23:51:56.396Z,99.90
2022-08-05T23:54:30.365Z,99.90
2022-08-05T23:57:04.122Z,99.90
